KAUW

Wausau Downtown Airport

Wausau, Wisconsin, USA
METAR KAUW 150054Z AUTO 22004KT 8SM CLR 26/21 A2991 RMK AO2 SLP124 T02560211
Observed Flight Rules
Aug-15 @ 00:54 UTC (13 minutes ago) Visual Flight Rules
Wind Visibility Clouds
220° at 4 knots 8 miles
  • Clear skies
Temperatures Readings
Current 26°C / 79°F
Dewpoint 21°C / 70°F
Humidity 74%
Altimeter 29.91" Hg
Pressure 1012.4 hPa
Elevation 362
METAR KAUW 150054Z AUTO 22004KT 8SM CLR 26/21 A2991 RMK AO2 SLP124 T02560211
Observed Flight Rules
Aug-15 @ 00:54 UTC
(13 minutes ago)
VFR
Wind Visibility
220° at 4 knots 8 miles
Clouds
  • Clear skies
Temperature Dewpoint
26°C / 79°F 21°C / 70°F
Humidity Altimeter Pressure
74% 29.91" Hg 1012.4 hPa